Time;durP1;ratioP1;P1;durP2;ratioP2;P2;SDS_P1;SDS_P2;PMS_P1;PMS_P2;Temp;Humidity;BMP_temperature;BMP_pressure;BME280_temperature;BME280_humidity;BME280_pressure;Samples;Min_cycle;Max_cycle;Signal;HPM_P1;HPM_P2
2022/08/26 00:01:35;;;;;;;12.00;10.15;;;21.30;99.90;;;;;;5088368;27;20050;-68
2022/08/26 00:04:02;;;;;;;13.88;10.43;;;21.30;99.90;;;;;;5110067;27;20606;-68
2022/08/26 00:06:29;;;;;;;14.40;10.77;;;21.30;99.90;;;;;;5078162;27;20103;-68
2022/08/26 00:08:56;;;;;;;15.85;10.93;;;21.20;99.90;;;;;;5111703;27;20047;-68
2022/08/26 00:11:21;;;;;;;13.73;10.88;;;21.10;99.90;;;;;;5110888;27;20046;-68
2022/08/26 00:13:47;;;;;;;12.63;11.32;;;21.00;99.90;;;;;;5110517;27;20034;-68
2022/08/26 00:16:13;;;;;;;13.48;11.13;;;20.90;99.90;;;;;;5111616;27;20524;-68
2022/08/26 00:18:39;;;;;;;15.32;11.57;;;20.80;99.90;;;;;;5094326;27;20646;-68
2022/08/26 00:21:06;;;;;;;12.98;11.60;;;20.70;99.90;;;;;;5112168;27;20051;-68
2022/08/26 00:23:32;;;;;;;16.83;12.50;;;20.70;99.90;;;;;;5111697;27;20042;-68
2022/08/26 00:25:58;;;;;;;18.48;13.20;;;20.60;99.90;;;;;;5111108;27;20026;-68
2022/08/26 00:28:24;;;;;;;17.38;13.52;;;20.60;99.90;;;;;;5110662;27;20703;-68
2022/08/26 00:30:50;;;;;;;14.15;12.48;;;20.60;99.90;;;;;;5111505;27;20049;-69
2022/08/26 00:33:16;;;;;;;15.02;13.27;;;20.50;99.90;;;;;;5093617;27;20138;-68
2022/08/26 00:35:43;;;;;;;18.20;14.63;;;20.50;99.90;;;;;;5094406;27;20042;-68
2022/08/26 00:38:09;;;;;;;19.83;15.90;;;20.40;99.90;;;;;;5110530;27;20121;-68
2022/08/26 00:40:38;;;;;;;18.35;16.08;;;20.40;99.90;;;;;;5097170;27;20042;-68
2022/08/26 00:43:05;;;;;;;20.27;16.83;;;20.50;99.90;;;;;;5115005;27;21172;-68
2022/08/26 00:45:40;;;;;;;19.90;16.85;;;20.40;99.90;;;;;;5122188;27;20034;-68
2022/08/26 00:48:07;;;;;;;24.83;20.20;;;20.40;99.90;;;;;;5116440;27;20046;-68
2022/08/26 00:50:37;;;;;;;23.55;20.92;;;20.40;99.90;;;;;;5113623;27;20388;-68
2022/08/26 00:53:20;;;;;;;24.23;21.45;;;20.30;99.90;;;;;;5114293;27;20038;-68
2022/08/26 00:56:00;;;;;;;26.17;23.50;;;20.40;99.90;;;;;;5114521;27;20053;-68
2022/08/26 00:58:28;;;;;;;28.55;25.67;;;20.40;99.90;;;;;;5114810;27;20091;-69
2022/08/26 01:00:54;;;;;;;29.15;26.20;;;20.40;99.90;;;;;;5114746;27;20539;-68
2022/08/26 01:03:24;;;;;;;30.00;26.50;;;20.30;99.90;;;;;;5095741;27;20417;-68
2022/08/26 01:05:58;;;;;;;32.38;28.30;;;20.30;99.90;;;;;;5114370;27;20039;-68
2022/08/26 01:08:26;;;;;;;31.13;27.77;;;20.20;99.90;;;;;;5097940;27;20090;-68
2022/08/26 01:10:54;;;;;;;32.17;28.75;;;20.30;99.90;;;;;;5131204;27;20103;-68
2022/08/26 01:13:20;;;;;;;32.75;29.35;;;20.10;99.90;;;;;;5096950;27;20050;-68
2022/08/26 01:15:50;;;;;;;35.33;30.88;;;20.20;99.90;;;;;;5115356;27;20049;-68
2022/08/26 01:18:17;;;;;;;40.65;31.63;;;20.20;99.90;;;;;;5133640;27;20378;-68
2022/08/26 01:20:59;;;;;;;35.95;32.10;;;20.20;99.90;;;;;;5115434;27;20698;-68
2022/08/26 01:23:28;;;;;;;37.65;33.45;;;20.00;99.90;;;;;;5113383;27;20236;-68
2022/08/26 01:25:59;;;;;;;42.80;34.72;;;20.10;99.90;;;;;;5114340;27;20091;-68
2022/08/26 01:28:28;;;;;;;40.50;35.35;;;20.00;99.90;;;;;;5114540;27;20038;-68
2022/08/26 01:30:56;;;;;;;46.42;36.63;;;20.10;99.90;;;;;;5115091;27;20598;-68
2022/08/26 01:33:40;;;;;;;50.45;37.70;;;20.10;99.90;;;;;;5114231;27;20107;-69
2022/08/26 01:36:06;;;;;;;46.22;37.70;;;20.00;99.90;;;;;;5095080;27;20260;-68
2022/08/26 01:38:32;;;;;;;56.67;40.20;;;20.00;99.90;;;;;;5103842;27;20499;-68
2022/08/26 01:40:59;;;;;;;47.90;37.40;;;20.10;99.90;;;;;;5131462;27;20037;-68
2022/08/26 01:43:28;;;;;;;47.65;37.55;;;20.10;99.90;;;;;;5097790;27;20055;-69
2022/08/26 01:45:55;;;;;;;49.60;34.72;;;20.10;99.90;;;;;;5113889;27;20035;-68
2022/08/26 01:48:25;;;;;;;56.40;39.30;;;19.90;99.90;;;;;;5096526;27;20305;-69
2022/08/26 01:50:52;;;;;;;48.97;37.42;;;20.10;99.90;;;;;;5112643;27;20154;-69
2022/08/26 01:53:19;;;;;;;53.83;39.40;;;20.10;99.90;;;;;;5113963;27;20046;-68
2022/08/26 01:55:49;;;;;;;50.20;36.25;;;20.30;99.90;;;;;;5113571;27;20046;-68
2022/08/26 01:58:22;;;;;;;63.80;38.55;;;20.20;99.90;;;;;;5113459;27;20034;-68
2022/08/26 02:00:48;;;;;;;51.13;35.40;;;20.30;99.90;;;;;;5113174;27;20241;-68
2022/08/26 02:03:15;;;;;;;55.28;35.35;;;20.30;99.90;;;;;;5113553;27;20041;-68
2022/08/26 02:05:58;;;;;;;50.05;33.10;;;20.30;99.90;;;;;;5114636;27;20038;-67
2022/08/26 02:08:49;;;;;;;57.58;34.88;;;20.30;99.90;;;;;;5114236;27;20369;-68
2022/08/26 02:11:15;;;;;;;50.35;33.63;;;20.50;99.90;;;;;;5104315;27;20059;-68
2022/08/26 02:13:47;;;;;;;58.75;37.05;;;20.20;99.90;;;;;;5085185;27;20042;-68
2022/08/26 02:16:17;;;;;;;52.58;33.17;;;20.40;99.90;;;;;;5106264;27;20579;-68
2022/08/26 02:18:44;;;;;;;58.47;34.20;;;20.50;99.90;;;;;;5115603;27;20739;-68
2022/08/26 02:21:11;;;;;;;51.17;33.90;;;20.30;99.90;;;;;;5116046;27;20057;-68
2022/08/26 02:23:38;;;;;;;55.78;33.45;;;20.30;99.90;;;;;;5094608;27;20050;-67
2022/08/26 02:26:11;;;;;;;49.70;33.50;;;20.50;99.90;;;;;;5112840;27;20034;-68
2022/08/26 02:28:48;;;;;;;60.13;34.78;;;20.30;99.90;;;;;;5113448;27;20039;-69
2022/08/26 02:31:14;;;;;;;61.22;35.72;;;20.40;99.90;;;;;;5091371;27;20038;-68
2022/08/26 02:33:40;;;;;;;55.58;35.50;;;20.50;99.90;;;;;;5089957;27;20038;-68
2022/08/26 02:36:05;;;;;;;53.60;34.47;;;20.30;99.90;;;;;;5097213;27;20049;-68
2022/08/26 02:38:32;;;;;;;54.67;33.92;;;20.30;99.90;;;;;;5112853;27;20046;-68
2022/08/26 02:40:58;;;;;;;55.92;34.13;;;20.40;99.90;;;;;;5112791;27;20492;-68
2022/08/26 02:43:23;;;;;;;55.17;32.50;;;20.50;99.90;;;;;;5112771;27;20322;-68
2022/08/26 02:45:49;;;;;;;56.22;34.33;;;20.40;99.90;;;;;;5112685;27;20194;-68
2022/08/26 02:48:17;;;;;;;56.92;31.90;;;20.40;99.90;;;;;;5099611;27;20035;-68
2022/08/26 02:50:43;;;;;;;63.42;33.25;;;20.70;99.90;;;;;;5094887;27;20058;-68
2022/08/26 02:53:10;;;;;;;55.10;33.90;;;20.50;99.90;;;;;;5113272;27;20067;-67
2022/08/26 02:55:37;;;;;;;58.03;33.60;;;20.70;99.90;;;;;;5112545;27;20619;-68
2022/08/26 02:58:03;;;;;;;59.88;35.67;;;20.80;99.90;;;;;;5095505;27;20042;-67
2022/08/26 03:00:30;;;;;;;54.97;34.15;;;20.70;99.90;;;;;;5094100;27;20076;-68
2022/08/26 03:02:56;;;;;;;59.63;34.67;;;20.80;99.90;;;;;;5093873;27;20509;-68
2022/08/26 03:05:22;;;;;;;64.13;37.47;;;20.60;99.90;;;;;;5111842;27;20194;-68
2022/08/26 03:07:48;;;;;;;60.80;38.53;;;20.90;99.90;;;;;;5112833;27;20046;-69
2022/08/26 03:10:15;;;;;;;57.75;37.13;;;20.80;99.90;;;;;;5103360;27;20260;-68
2022/08/26 03:12:44;;;;;;;57.92;38.10;;;20.80;99.90;;;;;;5112655;27;20047;-68
2022/08/26 03:15:11;;;;;;;71.28;45.28;;;21.00;99.90;;;;;;5111388;27;20238;-67
2022/08/26 03:17:37;;;;;;;67.43;41.60;;;21.00;99.90;;;;;;5096539;27;20035;-67
2022/08/26 03:20:08;;;;;;;63.25;39.72;;;20.90;99.90;;;;;;5112508;27;20038;-66
2022/08/26 03:22:35;;;;;;;60.92;37.83;;;20.90;99.90;;;;;;5112855;27;20700;-68
2022/08/26 03:25:02;;;;;;;61.55;36.22;;;20.80;99.90;;;;;;5128939;27;20034;-68
2022/08/26 03:27:28;;;;;;;60.15;34.13;;;20.80;99.90;;;;;;5111264;27;20058;-69
2022/08/26 03:32:38;;;;;;;63.70;34.53;;;20.80;99.90;;;;;;5112162;27;20179;-68
2022/08/26 03:35:04;;;;;;;54.72;32.85;;;20.90;99.90;;;;;;5110518;27;20331;-67
2022/08/26 03:37:30;;;;;;;52.30;31.30;;;20.90;99.90;;;;;;5112211;27;20035;-67
2022/08/26 03:39:55;;;;;;;56.03;31.88;;;20.80;99.90;;;;;;5077977;27;20633;-67
2022/08/26 03:42:21;;;;;;;61.35;34.25;;;20.60;99.90;;;;;;5112459;27;20065;-69
2022/08/26 03:44:47;;;;;;;56.55;32.58;;;20.60;99.90;;;;;;5112340;27;20039;-68
2022/08/26 03:47:13;;;;;;;58.00;34.00;;;20.70;99.90;;;;;;5110988;27;20051;-68
2022/08/26 03:49:39;;;;;;;66.65;33.95;;;20.90;99.90;;;;;;5093876;27;20043;-68
2022/08/26 03:52:05;;;;;;;78.55;34.95;;;20.80;99.90;;;;;;5112169;27;20468;-68
2022/08/26 03:54:31;;;;;;;57.08;33.38;;;20.70;99.90;;;;;;5075990;27;20039;-68
2022/08/26 03:56:57;;;;;;;59.70;34.50;;;20.60;99.90;;;;;;5094109;27;20130;-69
2022/08/26 03:59:23;;;;;;;63.80;35.10;;;20.70;99.90;;;;;;5105228;27;20038;-68
2022/08/26 04:01:48;;;;;;;67.47;36.55;;;20.80;99.90;;;;;;5110028;27;20052;-68
2022/08/26 04:04:14;;;;;;;62.03;34.63;;;20.90;99.90;;;;;;5083053;27;20279;-68
2022/08/26 04:06:42;;;;;;;62.90;34.08;;;20.60;99.90;;;;;;5094387;27;20034;-68
2022/08/26 04:09:16;;;;;;;67.00;35.65;;;20.80;99.90;;;;;;5092734;27;20061;-68
2022/08/26 04:11:43;;;;;;;65.75;35.53;;;20.80;99.90;;;;;;5083108;27;20058;-68
2022/08/26 04:14:15;;;;;;;64.25;35.97;;;20.70;99.90;;;;;;5082980;27;20047;-68
2022/08/26 04:16:41;;;;;;;58.88;34.33;;;20.70;99.90;;;;;;5091669;27;20050;-68
2022/08/26 04:19:09;;;;;;;63.72;34.42;;;20.60;99.90;;;;;;5084298;27;20559;-68
2022/08/26 04:21:37;;;;;;;61.92;34.95;;;20.70;99.90;;;;;;5129560;27;20039;-69
2022/08/26 04:24:03;;;;;;;58.58;32.53;;;20.80;99.90;;;;;;5094942;27;20224;-68
2022/08/26 04:26:35;;;;;;;59.72;32.53;;;20.80;99.90;;;;;;5092538;27;20349;-69
2022/08/26 04:29:06;;;;;;;60.22;34.45;;;20.80;99.90;;;;;;5083521;27;20042;-67
2022/08/26 04:31:36;;;;;;;56.72;34.30;;;20.80;99.90;;;;;;5110669;27;20490;-68
2022/08/26 04:34:02;;;;;;;59.80;33.58;;;20.50;99.90;;;;;;5092790;27;20055;-68
2022/08/26 04:36:28;;;;;;;61.20;35.00;;;20.50;99.90;;;;;;5093971;27;20050;-68
2022/08/26 04:38:55;;;;;;;58.10;33.88;;;20.50;99.90;;;;;;5110302;27;20288;-68
2022/08/26 04:41:21;;;;;;;66.85;34.35;;;20.80;99.90;;;;;;5111267;27;20244;-66
2022/08/26 04:43:47;;;;;;;53.08;31.85;;;20.80;99.90;;;;;;5110966;27;20043;-69
2022/08/26 04:46:18;;;;;;;56.33;33.28;;;20.60;99.90;;;;;;5093791;27;20121;-68
2022/08/26 04:48:44;;;;;;;58.83;32.28;;;20.80;99.90;;;;;;5111484;27;20312;-68
2022/08/26 04:51:10;;;;;;;52.55;30.45;;;20.80;99.90;;;;;;5093128;27;20404;-68
2022/08/26 04:53:36;;;;;;;46.55;28.20;;;20.70;99.90;;;;;;5082315;27;20046;-69
2022/08/26 04:56:03;;;;;;;44.38;28.70;;;20.70;99.90;;;;;;5110178;27;20047;-67
2022/08/26 04:58:29;;;;;;;42.20;26.92;;;20.70;99.90;;;;;;5088729;27;20299;-67
2022/08/26 05:00:55;;;;;;;47.22;27.98;;;20.70;99.90;;;;;;5092944;27;20114;-68
2022/08/26 05:03:22;;;;;;;50.15;28.17;;;20.90;99.90;;;;;;5110919;27;20039;-66
2022/08/26 05:05:49;;;;;;;51.03;30.77;;;20.90;99.90;;;;;;5085806;27;20491;-69
2022/08/26 05:08:16;;;;;;;51.88;29.27;;;20.90;99.90;;;;;;5110130;27;20066;-69
2022/08/26 05:10:45;;;;;;;50.28;29.77;;;20.80;99.90;;;;;;5092801;27;20049;-67
2022/08/26 05:13:12;;;;;;;50.45;30.23;;;20.80;99.90;;;;;;5110301;27;21267;-68
2022/08/26 05:15:39;;;;;;;49.88;29.13;;;21.00;99.90;;;;;;5093827;27;20297;-68
2022/08/26 05:18:06;;;;;;;54.35;29.48;;;20.80;99.90;;;;;;5094426;27;20184;-67
2022/08/26 05:20:32;;;;;;;48.90;28.33;;;20.80;99.90;;;;;;5110008;27;20376;-67
2022/08/26 05:22:59;;;;;;;46.67;27.58;;;21.00;99.90;;;;;;5093948;27;20274;-66
2022/08/26 05:25:29;;;;;;;48.30;27.15;;;20.90;99.90;;;;;;5092943;27;20031;-67
2022/08/26 05:27:55;;;;;;;53.22;30.20;;;21.00;99.90;;;;;;5113414;27;20557;-69
2022/08/26 05:30:21;;;;;;;48.03;28.80;;;20.90;99.90;;;;;;5133447;27;20039;-68
2022/08/26 05:32:48;;;;;;;47.88;28.55;;;21.00;99.90;;;;;;5083785;27;20472;-68
2022/08/26 05:35:16;;;;;;;52.35;29.73;;;20.90;99.90;;;;;;5113138;27;20099;-66
2022/08/26 05:37:41;;;;;;;53.15;30.33;;;20.80;99.90;;;;;;5112360;27;20047;-67
2022/08/26 05:40:08;;;;;;;55.00;29.58;;;20.80;99.90;;;;;;5133001;27;20043;-67
2022/08/26 05:42:33;;;;;;;50.00;29.58;;;20.90;99.90;;;;;;5083675;27;20487;-67
2022/08/26 05:44:59;;;;;;;44.03;26.00;;;21.00;99.90;;;;;;5114819;27;20038;-68
2022/08/26 05:47:25;;;;;;;46.65;27.88;;;20.90;99.90;;;;;;5114086;27;20122;-67
2022/08/26 05:49:51;;;;;;;49.53;28.08;;;21.00;99.90;;;;;;5131899;27;20095;-67
2022/08/26 05:52:17;;;;;;;41.42;25.52;;;20.80;99.90;;;;;;5094847;27;20277;-67
2022/08/26 05:54:43;;;;;;;40.55;25.02;;;21.00;99.90;;;;;;5113562;27;20430;-67
2022/08/26 05:57:10;;;;;;;48.45;24.80;;;21.00;99.90;;;;;;5095968;27;20288;-68
2022/08/26 05:59:37;;;;;;;43.95;23.15;;;20.90;99.90;;;;;;5113633;27;20050;-67
2022/08/26 06:02:04;;;;;;;41.97;24.55;;;21.00;99.90;;;;;;5096197;27;20129;-67
2022/08/26 06:04:30;;;;;;;40.58;22.23;;;21.10;99.90;;;;;;5085852;27;20039;-68
2022/08/26 06:06:56;;;;;;;37.17;22.77;;;21.20;99.90;;;;;;5112919;27;20082;-67
2022/08/26 06:09:22;;;;;;;39.17;21.70;;;21.20;99.90;;;;;;5113914;27;20054;-66
2022/08/26 06:11:48;;;;;;;36.50;19.60;;;21.10;99.90;;;;;;5084178;27;20508;-68
2022/08/26 06:14:14;;;;;;;31.08;17.45;;;21.20;99.90;;;;;;5113699;27;20034;-68
2022/08/26 06:16:43;;;;;;;40.03;19.63;;;21.10;99.90;;;;;;5113375;27;20621;-68
2022/08/26 06:19:11;;;;;;;31.50;18.00;;;21.20;99.90;;;;;;5103534;27;20038;-68
2022/08/26 06:21:40;;;;;;;34.83;17.98;;;21.20;99.90;;;;;;5097194;27;20034;-67
2022/08/26 06:26:57;;;;;;;30.35;15.98;;;21.30;99.90;;;;;;5115075;27;20053;-67
2022/08/26 06:29:25;;;;;;;29.20;16.27;;;21.30;99.90;;;;;;5115846;27;20499;-67
2022/08/26 06:31:51;;;;;;;29.63;17.48;;;21.20;99.90;;;;;;5097663;27;20101;-66
2022/08/26 06:34:17;;;;;;;36.03;17.75;;;21.10;99.90;;;;;;5113569;27;20042;-67
2022/08/26 06:36:43;;;;;;;41.42;18.98;;;21.10;99.90;;;;;;5113471;27;20057;-67
2022/08/26 06:39:12;;;;;;;42.22;19.15;;;21.40;99.90;;;;;;5114361;27;20514;-67
2022/08/26 06:41:39;;;;;;;40.33;18.23;;;21.30;99.90;;;;;;5113502;27;20110;-67
2022/08/26 06:44:06;;;;;;;33.15;16.58;;;21.30;99.90;;;;;;5095344;27;20085;-68
2022/08/26 06:46:32;;;;;;;36.25;17.60;;;21.50;99.90;;;;;;5131411;27;20054;-67
2022/08/26 06:48:58;;;;;;;33.30;15.77;;;21.60;99.90;;;;;;5088354;27;20042;-66
2022/08/26 06:51:27;;;;;;;30.55;14.95;;;21.60;99.90;;;;;;5112707;27;20606;-66
2022/08/26 06:53:54;;;;;;;35.50;16.67;;;21.40;99.90;;;;;;5111072;27;20038;-67
2022/08/26 06:56:23;;;;;;;32.63;15.95;;;21.40;99.90;;;;;;5113210;27;20150;-67
2022/08/26 06:58:49;;;;;;;38.05;16.73;;;21.50;99.90;;;;;;5095769;27;20134;-67
2022/08/26 07:01:26;;;;;;;28.75;17.30;;;21.30;99.90;;;;;;5111448;27;20039;-67
2022/08/26 07:03:55;;;;;;;33.10;17.38;;;21.40;99.90;;;;;;5111275;27;20049;-67
2022/08/26 07:06:22;;;;;;;31.80;17.52;;;21.20;99.90;;;;;;5112536;27;20101;-67
2022/08/26 07:08:49;;;;;;;35.55;17.45;;;21.40;99.90;;;;;;5074963;27;21290;-67
2022/08/26 07:11:15;;;;;;;34.65;18.52;;;21.40;99.90;;;;;;5068127;27;20126;-66
2022/08/26 07:13:41;;;;;;;38.58;16.95;;;21.30;99.90;;;;;;5088773;27;20117;-67
2022/08/26 07:16:11;;;;;;;38.22;16.10;;;21.10;99.90;;;;;;5112620;27;20039;-68
2022/08/26 07:18:39;;;;;;;33.80;15.48;;;21.10;99.90;;;;;;5096888;27;20108;-68
2022/08/26 07:21:08;;;;;;;34.17;16.48;;;21.10;99.90;;;;;;5113598;27;20546;-67
2022/08/26 07:23:35;;;;;;;33.85;16.08;;;21.30;99.90;;;;;;5113869;27;20314;-68
2022/08/26 07:26:10;;;;;;;37.65;16.17;;;21.40;99.90;;;;;;5096340;27;20122;-68
2022/08/26 07:28:37;;;;;;;34.90;16.88;;;21.50;99.90;;;;;;5114093;27;20046;-68
2022/08/26 07:31:04;;;;;;;37.22;17.42;;;21.60;99.90;;;;;;5114587;27;20548;-68
2022/08/26 07:33:30;;;;;;;35.92;16.80;;;21.40;99.90;;;;;;5117169;27;20046;-68
2022/08/26 07:35:56;;;;;;;32.22;16.23;;;21.60;99.90;;;;;;5129211;27;20102;-69
2022/08/26 07:38:21;;;;;;;35.03;16.83;;;21.50;99.90;;;;;;5113770;27;20035;-66
2022/08/26 07:40:47;;;;;;;29.33;15.95;;;21.60;99.90;;;;;;5095638;27;20026;-66
2022/08/26 07:43:13;;;;;;;27.17;15.07;;;21.60;99.90;;;;;;5113916;27;20126;-65
2022/08/26 07:45:39;;;;;;;32.67;15.15;;;21.50;99.90;;;;;;5080171;27;20402;-66
2022/08/26 07:48:04;;;;;;;32.40;16.15;;;21.30;99.90;;;;;;5130362;27;20034;-66
2022/08/26 07:50:52;;;;;;;27.65;14.90;;;21.30;99.90;;;;;;5127675;27;20038;-68
2022/08/26 07:53:19;;;;;;;29.40;14.68;;;21.20;99.90;;;;;;5112955;27;20045;-67
2022/08/26 07:55:45;;;;;;;29.25;14.80;;;21.20;99.90;;;;;;5102202;27;20463;-67
2022/08/26 07:58:11;;;;;;;26.75;14.20;;;21.30;99.90;;;;;;5093384;27;20091;-67
2022/08/26 08:00:37;;;;;;;27.38;13.73;;;21.40;99.90;;;;;;5111591;27;20334;-67
2022/08/26 08:03:04;;;;;;;28.35;13.02;;;21.30;99.90;;;;;;5113010;27;20446;-67
2022/08/26 08:05:31;;;;;;;24.98;13.35;;;21.40;99.90;;;;;;5111827;27;20723;-66
2022/08/26 08:08:02;;;;;;;27.70;13.40;;;21.30;99.90;;;;;;5111049;27;20049;-66
2022/08/26 08:10:28;;;;;;;24.40;12.98;;;21.40;99.90;;;;;;5111992;27;20055;-68
2022/08/26 08:12:56;;;;;;;22.10;11.35;;;21.40;99.90;;;;;;5113085;27;20923;-66
2022/08/26 08:15:26;;;;;;;28.20;12.23;;;21.60;99.90;;;;;;5112588;27;20083;-67
2022/08/26 08:17:52;;;;;;;25.20;11.63;;;21.70;99.90;;;;;;5112272;27;20337;-68
2022/08/26 08:20:20;;;;;;;24.33;12.20;;;21.60;99.90;;;;;;5113806;27;20110;-66
2022/08/26 08:22:46;;;;;;;25.38;12.02;;;21.70;99.90;;;;;;5097188;27;20038;-68
2022/08/26 08:25:12;;;;;;;18.90;11.07;;;21.60;99.90;;;;;;5096387;27;20267;-66
2022/08/26 08:27:39;;;;;;;22.73;12.02;;;21.60;99.90;;;;;;5113803;27;20302;-68
2022/08/26 08:30:06;;;;;;;25.65;12.50;;;21.50;99.90;;;;;;5096645;27;20353;-67
2022/08/26 08:32:34;;;;;;;28.15;12.27;;;21.40;99.90;;;;;;5080413;27;20286;-68
2022/08/26 08:35:01;;;;;;;30.38;12.63;;;21.30;99.90;;;;;;5113517;27;20484;-66
2022/08/26 08:37:27;;;;;;;24.80;12.18;;;21.30;99.90;;;;;;5090299;27;20034;-68
2022/08/26 08:39:53;;;;;;;23.83;11.90;;;21.30;99.90;;;;;;5077823;27;20031;-67
2022/08/26 08:42:52;;;;;;;27.90;13.00;;;21.30;99.90;;;;;;5101499;27;20030;-67
2022/08/26 08:45:57;;;;;;;31.48;13.50;;;21.30;99.90;;;;;;5110843;27;20038;-67
2022/08/26 08:48:29;;;;;;;25.83;12.77;;;21.40;99.90;;;;;;5107836;27;20602;-68
2022/08/26 08:51:20;;;;;;;24.83;12.43;;;21.70;99.90;;;;;;5110695;27;20100;-66
2022/08/26 08:53:48;;;;;;;25.92;11.90;;;21.70;99.90;;;;;;5083549;27;20516;-66
2022/08/26 08:56:26;;;;;;;22.80;10.70;;;21.60;99.90;;;;;;5112336;27;20034;-66
2022/08/26 08:59:28;;;;;;;25.98;13.27;;;21.70;99.90;;;;;;5111222;27;20228;-67
2022/08/26 09:02:03;;;;;;;20.88;9.88;;;21.60;99.90;;;;;;5063948;27;20050;-67
2022/08/26 09:04:45;;;;;;;16.25;8.52;;;21.70;99.90;;;;;;5115192;27;20039;-67
2022/08/26 09:07:18;;;;;;;16.63;7.70;;;21.80;99.90;;;;;;5115389;27;20038;-67
2022/08/26 09:10:11;;;;;;;14.80;7.28;;;21.90;99.90;;;;;;5115680;27;20565;-68
2022/08/26 09:12:37;;;;;;;12.38;6.90;;;22.10;99.90;;;;;;5133418;27;20045;-67
2022/08/26 09:15:22;;;;;;;13.55;6.18;;;22.20;99.90;;;;;;5101351;27;20030;-66
2022/08/26 09:18:22;;;;;;;14.85;6.57;;;22.30;99.90;;;;;;5132417;27;20395;-67
2022/08/26 09:20:56;;;;;;;15.23;6.20;;;22.70;99.90;;;;;;5131303;27;20114;-67
2022/08/26 09:23:23;;;;;;;12.13;6.15;;;22.80;99.90;;;;;;5131271;27;20372;-66
2022/08/26 09:26:01;;;;;;;12.35;5.82;;;22.90;99.90;;;;;;5113305;27;20046;-67
2022/08/26 09:28:29;;;;;;;13.05;5.55;;;23.20;99.90;;;;;;5150798;27;20114;-67
2022/08/26 09:31:04;;;;;;;12.15;5.47;;;23.50;99.90;;;;;;5113242;27;20046;-67
2022/08/26 09:33:31;;;;;;;11.73;5.82;;;23.90;99.90;;;;;;5131999;27;20034;-67
2022/08/26 09:36:32;;;;;;;12.60;5.53;;;23.90;99.90;;;;;;5131891;27;20548;-67
2022/08/26 09:38:58;;;;;;;10.45;5.75;;;23.90;99.90;;;;;;5131904;27;20047;-66
2022/08/26 09:41:32;;;;;;;11.07;4.15;;;23.20;99.90;;;;;;5131679;27;20531;-65
2022/08/26 09:44:14;;;;;;;21.02;6.65;;;22.60;99.90;;;;;;5147933;27;20049;-65
2022/08/26 09:47:00;;;;;;;11.43;2.58;;;22.60;99.90;;;;;;5102448;27;20083;-67
2022/08/26 09:49:36;;;;;;;14.10;3.13;;;22.10;99.90;;;;;;5131722;27;20043;-66
2022/08/26 09:52:19;;;;;;;12.57;4.30;;;22.00;99.90;;;;;;5131463;27;20095;-67
2022/08/26 09:54:59;;;;;;;12.88;3.83;;;22.00;99.90;;;;;;5131416;27;20496;-67
2022/08/26 09:57:29;;;;;;;10.98;2.45;;;21.90;99.90;;;;;;5131251;27;21374;-66
2022/08/26 09:59:55;;;;;;;11.65;2.45;;;21.70;99.90;;;;;;5117785;27;20038;-67
2022/08/26 10:02:42;;;;;;;9.82;2.97;;;21.70;99.90;;;;;;5114314;27;20121;-66
2022/08/26 10:05:16;;;;;;;10.75;1.90;;;21.70;99.90;;;;;;5103793;27;20069;-66
2022/08/26 10:07:49;;;;;;;6.05;1.88;;;21.80;99.90;;;;;;5131780;27;20053;-66
2022/08/26 10:10:34;;;;;;;;;;;21.70;99.90;;;;;;5121836;27;20608;-65
2022/08/26 10:13:12;;;;;;;11.90;2.28;;;21.60;99.90;;;;;;5098873;27;19934;-65
2022/08/26 10:16:02;;;;;;;12.82;2.22;;;21.70;99.90;;;;;;5100674;27;20034;-65
2022/08/26 10:18:35;;;;;;;11.63;2.33;;;21.70;99.90;;;;;;5108233;27;20273;-68
2022/08/26 10:21:21;;;;;;;12.95;2.70;;;21.80;99.90;;;;;;5099108;27;20039;-67
2022/08/26 10:23:51;;;;;;;10.77;2.42;;;21.70;99.90;;;;;;5118008;27;20386;-67
2022/08/26 10:26:40;;;;;;;12.77;3.00;;;21.60;99.90;;;;;;5117901;27;20196;-66
2022/08/26 10:29:24;;;;;;;13.15;2.72;;;21.60;99.90;;;;;;5116795;27;20038;-67
2022/08/26 10:31:57;;;;;;;10.20;2.70;;;21.60;99.90;;;;;;5118018;27;20050;-69
2022/08/26 10:34:23;;;;;;;12.88;2.75;;;21.60;99.90;;;;;;5117016;27;20045;-66
2022/08/26 10:37:09;;;;;;;16.38;3.30;;;21.60;99.90;;;;;;5101551;27;20042;-67
2022/08/26 10:39:50;;;;;;;11.38;3.00;;;21.70;99.90;;;;;;5102362;27;20043;-67
2022/08/26 10:42:37;;;;;;;13.10;3.30;;;21.70;99.90;;;;;;5116813;27;20689;-68
2022/08/26 10:45:16;;;;;;;14.05;3.00;;;21.90;99.90;;;;;;5115018;27;20797;-67
2022/08/26 10:48:08;;;;;;;15.93;3.53;;;21.90;99.90;;;;;;5099380;27;20699;-67
2022/08/26 10:50:40;;;;;;;12.52;2.80;;;22.00;99.90;;;;;;5115715;27;20696;-68
2022/08/26 10:53:15;;;;;;;23.33;6.65;;;22.10;99.90;;;;;;5098901;27;20045;-68
2022/08/26 10:56:09;;;;;;;15.85;3.70;;;22.10;99.90;;;;;;5115994;27;20151;-67
2022/08/26 10:58:48;;;;;;;13.35;2.33;;;22.30;99.90;;;;;;5130897;27;20111;-66
2022/08/26 11:04:36;;;;;;;8.90;2.33;;;22.50;99.90;;;;;;5129967;27;20038;-67
2022/08/26 11:07:29;;;;;;;9.82;2.40;;;22.80;99.90;;;;;;5129360;27;20078;-68
2022/08/26 11:10:16;;;;;;;9.18;2.55;;;23.00;99.90;;;;;;5125678;27;20132;-66
2022/08/26 11:12:44;;;;;;;16.52;4.28;;;22.80;99.90;;;;;;5117959;27;20058;-66
2022/08/26 11:15:18;;;;;;;10.35;2.67;;;22.60;99.90;;;;;;5126218;27;20049;-65
2022/08/26 11:17:44;;;;;;;14.65;2.85;;;22.50;99.90;;;;;;5108354;27;20494;-65
2022/08/26 11:20:22;;;;;;;11.25;2.47;;;22.30;99.90;;;;;;5108302;27;20039;-67
2022/08/26 11:22:53;;;;;;;13.10;2.97;;;22.20;99.90;;;;;;5108965;27;20472;-67
2022/08/26 11:25:24;;;;;;;12.40;2.83;;;22.20;99.90;;;;;;5124955;27;20123;-67
2022/08/26 11:27:53;;;;;;;9.05;2.35;;;22.00;99.90;;;;;;5126888;27;20477;-66
2022/08/26 11:30:19;;;;;;;12.25;2.40;;;22.10;99.90;;;;;;5109039;27;20051;-66
2022/08/26 11:32:49;;;;;;;14.32;2.55;;;22.00;99.90;;;;;;5126639;27;20047;-66
2022/08/26 11:35:22;;;;;;;19.67;2.55;;;22.10;99.90;;;;;;5109170;27;20365;-65
2022/08/26 11:37:49;;;;;;;;;;;22.10;99.90;;;;;;5108958;27;20151;-66
2022/08/26 11:40:19;;;;;;;13.35;2.47;;;22.00;99.90;;;;;;5111404;27;19926;-66
2022/08/26 11:43:19;;;;;;;17.77;2.65;;;21.90;99.90;;;;;;5108893;27;20104;-65
2022/08/26 11:45:56;;;;;;;13.98;2.50;;;21.60;99.90;;;;;;5113357;27;20489;-65
2022/08/26 11:48:41;;;;;;;13.57;2.40;;;21.60;99.90;;;;;;5109004;27;20035;-64
2022/08/26 11:51:11;;;;;;;21.33;2.90;;;21.40;99.90;;;;;;5092870;27;20043;-66
2022/08/26 11:53:45;;;;;;;18.73;2.53;;;21.50;99.90;;;;;;5124910;27;20047;-66
2022/08/26 11:56:31;;;;;;;13.70;2.13;;;21.50;99.90;;;;;;5125915;27;20099;-66
2022/08/26 11:58:59;;;;;;;13.15;2.47;;;21.60;99.90;;;;;;5107223;27;20153;-66
2022/08/26 12:01:31;;;;;;;12.65;2.00;;;21.80;99.90;;;;;;5124593;27;20118;-66
2022/08/26 12:03:58;;;;;;;12.93;2.53;;;22.10;99.90;;;;;;5099128;27;20070;-66
2022/08/26 12:06:31;;;;;;;13.00;1.77;;;22.30;99.90;;;;;;5108133;28;20050;-66
2022/08/26 12:09:01;;;;;;;14.45;1.85;;;22.50;99.90;;;;;;5124831;27;20107;-66
2022/08/26 12:11:30;;;;;;;12.85;1.80;;;22.50;99.90;;;;;;5123416;27;20039;-66
2022/08/26 12:14:00;;;;;;;13.70;2.15;;;22.60;99.90;;;;;;5096615;27;20043;-65
2022/08/26 12:16:28;;;;;;;12.00;1.65;;;22.70;99.90;;;;;;5105944;27;20050;-66
2022/08/26 12:18:54;;;;;;;15.05;2.20;;;22.80;99.90;;;;;;5125577;27;20050;-66
2022/08/26 12:21:29;;;;;;;14.02;1.90;;;22.90;99.90;;;;;;5125088;27;20027;-65
2022/08/26 12:24:00;;;;;;;13.77;1.85;;;23.20;99.90;;;;;;5103840;27;20031;-67
2022/08/26 12:26:27;;;;;;;11.80;1.95;;;23.20;99.90;;;;;;5123726;27;20122;-66
2022/08/26 12:29:06;;;;;;;12.27;1.90;;;23.10;99.90;;;;;;5107315;28;20047;-66
2022/08/26 12:31:38;;;;;;;13.18;2.00;;;22.40;99.90;;;;;;5108376;28;20126;-66
2022/08/26 12:34:08;;;;;;;11.18;2.30;;;22.40;99.90;;;;;;5107944;28;20041;-65
2022/08/26 12:36:53;;;;;;;9.20;1.77;;;22.20;99.90;;;;;;5126399;28;20039;-66
2022/08/26 12:39:35;;;;;;;10.95;1.90;;;22.20;99.90;;;;;;5123020;28;20047;-67
2022/08/26 12:42:23;;;;;;;16.42;1.92;;;22.10;99.90;;;;;;5123585;28;20043;-67
2022/08/26 12:44:57;;;;;;;11.85;1.73;;;22.20;99.90;;;;;;5122986;28;20050;-68
2022/08/26 12:47:33;;;;;;;10.35;1.92;;;22.20;99.90;;;;;;5123019;28;20047;-66
2022/08/26 12:50:17;;;;;;;11.40;1.60;;;22.30;99.90;;;;;;5124048;28;20050;-66
2022/08/26 12:52:58;;;;;;;11.48;2.15;;;22.10;99.90;;;;;;5107722;28;20039;-67
2022/08/26 12:55:38;;;;;;;9.50;1.63;;;22.00;99.90;;;;;;5123847;28;20499;-65
2022/08/26 12:58:22;;;;;;;7.20;1.63;;;21.90;99.90;;;;;;5123131;28;20341;-65